Time;durP1;ratioP1;P1;durP2;ratioP2;P2;SDS_P1;SDS_P2;PMS_P1;PMS_P2;Temp;Humidity;BMP_temperature;BMP_pressure;BME280_temperature;BME280_humidity;BME280_pressure;Samples;Min_cycle;Max_cycle;Signal;HPM_P1;HPM_P2
2022/11/13 00:04:21;;;;;;;126.80;50.47;;;7.40;99.90;;;;;;10446451;28;20742;-80
2022/11/13 00:09:21;;;;;;;111.20;43.47;;;7.40;99.90;;;;;;10445777;28;20043;-79
2022/11/13 00:14:22;;;;;;;151.27;47.60;;;7.40;99.90;;;;;;10446268;28;20706;-79
2022/11/13 00:19:22;;;;;;;143.50;48.37;;;7.30;99.90;;;;;;10446426;28;20048;-79
2022/11/13 00:24:23;;;;;;;128.83;44.53;;;7.20;99.90;;;;;;10445724;28;20052;-80
2022/11/13 00:29:23;;;;;;;161.17;42.90;;;7.20;99.90;;;;;;10446214;28;20059;-79
2022/11/13 00:34:24;;;;;;;119.23;39.27;;;7.20;99.90;;;;;;10445278;28;20507;-79
2022/11/13 00:39:24;;;;;;;128.13;40.60;;;7.00;99.90;;;;;;10445189;28;20061;-80
2022/11/13 00:44:25;;;;;;;160.10;39.43;;;7.00;99.90;;;;;;10445361;28;20560;-80
2022/11/13 00:49:26;;;;;;;122.93;38.10;;;6.90;99.90;;;;;;10444619;28;20043;-79
2022/11/13 00:54:26;;;;;;;176.77;44.73;;;6.70;99.90;;;;;;10441047;28;20107;-79
2022/11/13 00:59:27;;;;;;;96.47;32.33;;;6.70;99.90;;;;;;10433919;28;20033;-79
2022/11/13 01:04:28;;;;;;;127.17;37.87;;;6.70;99.90;;;;;;10445161;28;20095;-79
2022/11/13 01:09:28;;;;;;;113.13;38.03;;;6.70;99.90;;;;;;10444524;28;20045;-79
2022/11/13 01:14:29;;;;;;;206.43;45.47;;;6.70;99.90;;;;;;10443444;28;20021;-79
2022/11/13 01:19:29;;;;;;;111.97;38.10;;;6.70;99.90;;;;;;10444123;28;20914;-79
2022/11/13 01:24:30;;;;;;;100.53;35.93;;;6.70;99.90;;;;;;10441785;28;20461;-79
2022/11/13 01:29:31;;;;;;;141.33;40.17;;;6.70;99.90;;;;;;10435392;28;20044;-80
2022/11/13 01:34:31;;;;;;;114.80;36.87;;;6.70;99.90;;;;;;10444250;28;20401;-79
2022/11/13 01:39:32;;;;;;;132.77;40.47;;;6.70;99.90;;;;;;10443482;28;20057;-79
2022/11/13 01:44:51;;;;;;;109.77;34.33;;;6.70;99.90;;;;;;10444055;28;20029;-80
2022/11/13 01:49:55;;;;;;;116.80;37.37;;;6.70;99.90;;;;;;10442843;28;20045;-79
2022/11/13 01:55:01;;;;;;;95.97;35.40;;;6.60;99.90;;;;;;10442965;28;20032;-79
2022/11/13 02:00:06;;;;;;;124.23;39.53;;;6.60;99.90;;;;;;10442563;28;20048;-79
2022/11/13 02:05:08;;;;;;;132.83;41.47;;;6.60;99.90;;;;;;10401492;28;20905;-79
2022/11/13 02:10:08;;;;;;;168.77;40.40;;;6.60;99.90;;;;;;10440473;28;20040;-78
2022/11/13 02:15:09;;;;;;;240.20;44.77;;;6.60;99.90;;;;;;10442580;28;20099;-79
2022/11/13 02:20:11;;;;;;;196.63;48.57;;;6.50;99.90;;;;;;10442484;28;20045;-79
2022/11/13 02:25:12;;;;;;;341.50;57.33;;;6.50;99.90;;;;;;10427395;28;20080;-79
2022/11/13 02:30:29;;;;;;;378.07;54.50;;;6.50;99.90;;;;;;10438295;28;20021;-80
2022/11/13 02:35:35;;;;;;;;;;;6.50;99.90;;;;;;10442204;28;20017;-79
2022/11/13 02:40:37;;;;;;;182.82;46.85;;;6.40;99.90;;;;;;10440839;28;19932;-80
2022/11/13 02:45:38;;;;;;;227.97;52.07;;;6.40;99.90;;;;;;10441020;28;20032;-79
2022/11/13 02:50:39;;;;;;;193.27;46.73;;;6.40;99.90;;;;;;10441381;28;20028;-79
2022/11/13 02:55:39;;;;;;;146.00;49.97;;;6.40;99.90;;;;;;10440979;28;20028;-79
2022/11/13 03:00:40;;;;;;;183.50;49.00;;;6.50;99.90;;;;;;10441187;28;20040;-79
2022/11/13 03:05:40;;;;;;;176.97;49.27;;;6.50;99.90;;;;;;10441229;28;20067;-79
2022/11/13 03:10:41;;;;;;;208.63;53.40;;;6.50;99.90;;;;;;10441421;28;20041;-79
2022/11/13 03:15:41;;;;;;;176.80;49.67;;;6.50;99.90;;;;;;10440393;28;20040;-79
2022/11/13 03:20:42;;;;;;;184.60;45.00;;;6.50;99.90;;;;;;10446691;28;20045;-79
2022/11/13 03:25:43;;;;;;;156.27;44.40;;;6.50;99.90;;;;;;10448345;28;20499;-79
2022/11/13 03:30:43;;;;;;;158.53;45.33;;;6.50;99.90;;;;;;10447973;28;20082;-79
2022/11/13 03:35:44;;;;;;;143.67;40.93;;;6.50;99.90;;;;;;10447889;28;20036;-79
2022/11/13 03:40:44;;;;;;;119.07;40.20;;;6.50;99.90;;;;;;10447654;28;20140;-79
2022/11/13 03:45:46;;;;;;;203.40;50.73;;;6.50;99.90;;;;;;10446830;28;20782;-79
2022/11/13 03:50:51;;;;;;;165.00;48.03;;;6.50;99.90;;;;;;10447125;28;20400;-79
2022/11/13 03:55:52;;;;;;;166.97;46.77;;;6.50;99.90;;;;;;10446907;28;20031;-79
2022/11/13 04:00:54;;;;;;;152.83;44.03;;;6.50;99.90;;;;;;10447043;28;20051;-78
2022/11/13 04:05:55;;;;;;;174.07;47.37;;;6.50;99.90;;;;;;10446361;28;20056;-80
2022/11/13 04:11:05;;;;;;;146.83;46.03;;;6.60;99.90;;;;;;10446179;28;20651;-79
2022/11/13 04:16:06;;;;;;;129.30;43.00;;;6.60;99.90;;;;;;10445727;28;20044;-79
2022/11/13 04:21:06;;;;;;;151.83;45.73;;;6.50;99.90;;;;;;10446109;28;20052;-80
2022/11/13 04:26:07;;;;;;;129.63;41.37;;;6.50;99.90;;;;;;10442662;28;20497;-79
2022/11/13 04:31:07;;;;;;;128.23;43.17;;;6.50;99.90;;;;;;10445549;28;20447;-79
2022/11/13 04:36:08;;;;;;;188.07;46.57;;;6.60;99.90;;;;;;10445981;28;20032;-80
2022/11/13 04:46:30;;;;;;;146.17;43.07;;;6.60;99.90;;;;;;10444923;28;20481;-79
2022/11/13 04:51:31;;;;;;;132.63;43.47;;;6.60;99.90;;;;;;10445234;28;20021;-79
2022/11/13 04:56:31;;;;;;;125.30;39.87;;;6.60;99.90;;;;;;10445347;28;20743;-79
2022/11/13 05:01:35;;;;;;;232.03;49.03;;;6.60;99.90;;;;;;10444022;28;20040;-79
2022/11/13 05:06:35;;;;;;;161.47;48.13;;;6.60;99.90;;;;;;10444134;28;20530;-79
2022/11/13 05:11:36;;;;;;;153.93;47.87;;;6.60;99.90;;;;;;10444044;28;20039;-80
2022/11/13 05:16:36;;;;;;;155.47;48.63;;;6.60;99.90;;;;;;10443735;28;20477;-79
2022/11/13 05:21:38;;;;;;;170.47;47.87;;;6.70;99.90;;;;;;10411739;28;20040;-79
2022/11/13 05:26:39;;;;;;;150.10;44.13;;;6.70;99.90;;;;;;10436822;28;20071;-81
2022/11/13 05:31:39;;;;;;;152.47;44.00;;;6.70;99.90;;;;;;10441005;28;20621;-79
2022/11/13 05:36:40;;;;;;;184.77;52.43;;;6.70;99.90;;;;;;10439782;28;20091;-79
2022/11/13 05:41:40;;;;;;;161.20;48.43;;;6.70;99.90;;;;;;10442361;28;20597;-79
2022/11/13 05:46:41;;;;;;;175.77;49.23;;;6.70;99.90;;;;;;10442036;28;20040;-79
2022/11/13 05:51:42;;;;;;;178.27;49.90;;;6.70;99.90;;;;;;10442542;28;20029;-79
2022/11/13 05:56:42;;;;;;;168.17;48.00;;;6.70;99.90;;;;;;10442318;28;20132;-80
2022/11/13 06:01:43;;;;;;;181.13;44.80;;;6.70;99.90;;;;;;10441683;28;20036;-79
2022/11/13 06:06:43;;;;;;;198.97;74.00;;;6.70;99.90;;;;;;10441963;28;20028;-79
2022/11/13 06:11:44;;;;;;;171.30;47.43;;;6.70;99.90;;;;;;10473219;22;20068;-79
2022/11/13 06:16:44;;;;;;;190.97;68.10;;;6.80;99.90;;;;;;10475148;28;20090;-80
2022/11/13 06:21:45;;;;;;;176.67;66.87;;;6.70;99.90;;;;;;10478383;28;20045;-79
2022/11/13 06:26:45;;;;;;;170.57;58.57;;;6.70;99.90;;;;;;10477331;28;20041;-81
2022/11/13 06:31:46;;;;;;;120.00;37.80;;;6.70;99.90;;;;;;10450476;28;20036;-80
2022/11/13 06:36:46;;;;;;;126.67;42.87;;;6.70;99.90;;;;;;10482932;28;20028;-80
2022/11/13 06:41:47;;;;;;;105.57;34.13;;;6.70;99.90;;;;;;10469512;28;20450;-80
2022/11/13 06:46:47;;;;;;;105.77;34.57;;;6.70;99.90;;;;;;10468027;28;20107;-80
2022/11/13 06:51:48;;;;;;;130.27;37.40;;;6.70;99.90;;;;;;10482603;28;20377;-79
2022/11/13 06:56:48;;;;;;;104.03;32.30;;;6.70;99.90;;;;;;10490007;28;20028;-78
2022/11/13 07:01:52;;;;;;;107.30;36.93;;;6.80;99.90;;;;;;10478790;28;20047;-79
2022/11/13 07:06:52;;;;;;;132.33;51.07;;;6.80;99.90;;;;;;10465432;28;20032;-81
2022/11/13 07:11:53;;;;;;;131.33;52.13;;;6.80;99.90;;;;;;10409331;28;20503;-79
2022/11/13 07:16:53;;;;;;;135.17;65.30;;;6.90;99.90;;;;;;10412576;28;20034;-78
2022/11/13 07:21:54;;;;;;;147.83;52.90;;;7.00;99.90;;;;;;10425580;28;20039;-79
2022/11/13 07:26:54;;;;;;;151.00;54.97;;;7.00;99.90;;;;;;10426070;28;20029;-79
2022/11/13 07:31:55;;;;;;;202.83;103.47;;;7.00;99.90;;;;;;10439120;28;20044;-79
2022/11/13 07:36:55;;;;;;;106.50;51.20;;;7.00;99.90;;;;;;10463605;28;20037;-79
2022/11/13 07:41:56;;;;;;;99.80;33.67;;;7.00;99.90;;;;;;10436622;28;20116;-78
2022/11/13 07:46:56;;;;;;;77.83;32.13;;;7.00;99.90;;;;;;10457065;28;20037;-78
2022/11/13 07:51:57;;;;;;;77.23;30.57;;;7.00;99.90;;;;;;10474160;28;20029;-78
2022/11/13 07:56:58;;;;;;;81.13;30.33;;;7.10;99.90;;;;;;10432483;28;20616;-78
2022/11/13 08:01:58;;;;;;;72.70;33.37;;;7.20;99.90;;;;;;10466342;28;20095;-78
2022/11/13 08:06:59;;;;;;;65.60;30.03;;;7.20;99.90;;;;;;10438529;28;20041;-78
2022/11/13 08:12:00;;;;;;;57.53;27.00;;;7.30;99.90;;;;;;10419857;28;20057;-79
2022/11/13 08:17:01;;;;;;;67.67;32.50;;;7.50;99.90;;;;;;10465239;28;20119;-79
2022/11/13 08:22:01;;;;;;;69.93;32.90;;;7.60;99.90;;;;;;10467841;28;20051;-78
2022/11/13 08:27:02;;;;;;;62.43;30.03;;;7.70;99.90;;;;;;10468151;28;20486;-79
2022/11/13 08:32:03;;;;;;;63.60;30.53;;;7.60;99.90;;;;;;10450383;28;20024;-78
2022/11/13 08:37:03;;;;;;;63.83;27.13;;;7.70;99.90;;;;;;10472017;28;20037;-79
2022/11/13 08:42:04;;;;;;;58.70;26.60;;;7.70;99.90;;;;;;10475146;28;20063;-78
2022/11/13 08:47:05;;;;;;;62.97;28.77;;;7.70;99.90;;;;;;10460906;28;20025;-78
2022/11/13 08:52:06;;;;;;;69.17;29.80;;;7.80;99.90;;;;;;10477559;28;20028;-79
2022/11/13 08:57:07;;;;;;;76.73;38.90;;;7.90;99.90;;;;;;10462504;28;20037;-79
2022/11/13 09:02:11;;;;;;;67.40;32.47;;;7.80;99.90;;;;;;10462725;28;20044;-79
2022/11/13 09:07:12;;;;;;;82.60;41.70;;;7.80;99.90;;;;;;10452242;28;20024;-78
2022/11/13 09:12:13;;;;;;;68.50;35.67;;;7.80;99.90;;;;;;10468131;28;20053;-79
2022/11/13 09:17:13;;;;;;;72.00;35.43;;;8.10;99.90;;;;;;10468278;28;20052;-79
2022/11/13 09:22:14;;;;;;;66.20;32.37;;;8.10;99.90;;;;;;10485448;28;20040;-78
2022/11/13 09:27:14;;;;;;;66.60;29.93;;;8.00;99.90;;;;;;10475738;28;20039;-78
2022/11/13 09:32:16;;;;;;;79.33;37.50;;;8.10;99.90;;;;;;10470568;28;20024;-79
2022/11/13 09:37:16;;;;;;;73.70;33.90;;;8.10;99.90;;;;;;10466656;28;20476;-78
2022/11/13 09:42:23;;;;;;;67.67;32.67;;;8.20;99.90;;;;;;10464361;28;20044;-79
2022/11/13 09:47:29;;;;;;;64.30;32.37;;;8.50;99.90;;;;;;10444743;28;20055;-81
2022/11/13 09:52:38;;;;;;;63.42;30.55;;;8.60;99.90;;;;;;10433840;28;20428;-80
2022/11/13 09:57:47;;;;;;;66.57;29.90;;;8.70;99.90;;;;;;10425569;28;20044;-79
2022/11/13 10:02:54;;;;;;;84.63;40.30;;;8.80;99.90;;;;;;10448249;28;20048;-79
2022/11/13 10:08:14;;;;;;;90.77;41.00;;;8.80;99.90;;;;;;10448370;28;20095;-80
2022/11/13 10:13:21;;;;;;;76.70;37.33;;;8.70;99.90;;;;;;10453270;28;20037;-79
2022/11/13 10:18:31;;;;;;;77.67;37.97;;;8.60;99.90;;;;;;10449720;28;20709;-78
2022/11/13 10:23:36;;;;;;;71.77;33.43;;;8.50;99.90;;;;;;10442950;28;20501;-80
2022/11/13 10:28:39;;;;;;;78.37;42.33;;;8.50;99.90;;;;;;10454377;28;20033;-79
2022/11/13 10:33:39;;;;;;;71.20;34.27;;;8.50;99.90;;;;;;10433894;28;20334;-78
2022/11/13 10:38:56;;;;;;;80.57;39.47;;;8.60;99.90;;;;;;10446773;28;20037;-78
2022/11/13 10:44:04;;;;;;;60.80;30.40;;;8.60;99.90;;;;;;10448335;28;20023;-79
2022/11/13 10:49:31;;;;;;;57.73;29.37;;;8.70;99.90;;;;;;10441042;28;20655;-78
2022/11/13 10:54:32;;;;;;;55.27;28.33;;;8.80;99.90;;;;;;10451825;28;20052;-80
2022/11/13 10:59:44;;;;;;;57.67;28.33;;;9.00;99.90;;;;;;10444295;28;20448;-80
2022/11/13 11:04:44;;;;;;;58.13;31.07;;;9.10;99.90;;;;;;10438245;28;20029;-81
2022/11/13 11:09:46;;;;;;;59.23;28.80;;;9.30;99.90;;;;;;10415148;28;20049;-80
2022/11/13 11:14:56;;;;;;;60.60;31.03;;;9.60;99.90;;;;;;10433109;28;20036;-82
2022/11/13 11:20:09;;;;;;;77.03;44.00;;;10.10;99.90;;;;;;10415599;28;20115;-81
2022/11/13 11:25:39;;;;;;;60.03;32.35;;;10.20;99.90;;;;;;10404820;28;20025;-82
2022/11/13 11:31:03;;;;;;;61.55;30.25;;;9.90;99.90;;;;;;10396374;28;20028;-82
2022/11/13 11:36:28;;;;;;;58.50;28.95;;;9.90;99.90;;;;;;10441307;28;20037;-81
2022/11/13 11:41:53;;;;;;;57.40;29.33;;;10.00;99.90;;;;;;10438335;28;20140;-81
2022/11/13 11:46:54;;;;;;;63.73;33.57;;;10.10;99.90;;;;;;10452764;28;20088;-81
2022/11/13 11:52:30;;;;;;;54.75;28.73;;;10.10;99.90;;;;;;10468673;28;20496;-81
2022/11/13 11:57:48;;;;;;;49.93;27.83;;;10.20;99.90;;;;;;10421868;28;20128;-81
2022/11/13 12:03:36;;;;;;;50.80;28.70;;;10.30;99.90;;;;;;10450600;28;20041;-81
2022/11/13 12:08:48;;;;;;;51.28;27.13;;;10.40;99.90;;;;;;10442801;28;20052;-83
2022/11/13 12:13:55;;;;;;;66.07;31.73;;;10.50;99.90;;;;;;10443047;28;20037;-81
2022/11/13 12:19:06;;;;;;;57.38;30.65;;;10.60;99.90;;;;;;10466774;28;20036;-80
2022/11/13 12:24:18;;;;;;;66.13;34.53;;;10.60;99.90;;;;;;10454990;28;20098;-82
2022/11/13 12:29:52;;;;;;;62.70;33.90;;;10.60;99.90;;;;;;10449227;28;20036;-80
2022/11/13 12:34:59;;;;;;;61.30;32.65;;;10.60;99.90;;;;;;10457208;28;20035;-81
2022/11/13 12:40:11;;;;;;;71.00;37.35;;;10.60;99.90;;;;;;10437485;28;20041;-81
2022/11/13 12:45:36;;;;;;;62.83;31.38;;;10.70;99.90;;;;;;10433060;28;20040;-80
2022/11/13 12:50:37;;;;;;;62.05;32.75;;;10.70;99.90;;;;;;10421589;28;20482;-80
2022/11/13 12:55:39;;;;;;;55.58;30.88;;;10.70;99.90;;;;;;10444720;28;20031;-80
2022/11/13 13:00:56;;;;;;;62.58;34.55;;;10.80;99.90;;;;;;10451451;28;20057;-80
2022/11/13 13:06:08;;;;;;;389.23;215.52;;;10.90;99.90;;;;;;10476461;28;20017;-80
2022/11/13 13:11:12;;;;;;;107.55;50.78;;;10.80;99.90;;;;;;10460822;28;20527;-81
2022/11/13 13:16:22;;;;;;;105.90;48.85;;;10.70;99.90;;;;;;10458451;28;20028;-80
2022/11/13 13:21:23;;;;;;;211.25;83.25;;;10.60;99.90;;;;;;10483918;28;20045;-81
2022/11/13 13:26:25;;;;;;;86.53;42.03;;;10.60;99.90;;;;;;10454418;28;20033;-82
2022/11/13 13:31:38;;;;;;;202.52;84.13;;;10.50;99.90;;;;;;10443318;28;20458;-84
2022/11/13 13:36:42;;;;;;;102.03;51.40;;;10.40;99.90;;;;;;10447888;28;20043;-80
2022/11/13 13:41:59;;;;;;;98.80;54.22;;;10.40;99.90;;;;;;10449558;28;20127;-80
2022/11/13 13:47:05;;;;;;;82.45;45.83;;;10.40;99.90;;;;;;10438782;28;21046;-80
2022/11/13 13:52:06;;;;;;;74.47;40.47;;;10.30;99.90;;;;;;10446701;28;20013;-80
2022/11/13 13:57:13;;;;;;;187.68;90.65;;;10.20;99.90;;;;;;10440363;28;20051;-80
2022/11/13 14:02:19;;;;;;;84.70;43.80;;;10.10;99.90;;;;;;10439155;28;20041;-80
2022/11/13 14:07:24;;;;;;;;;;;10.10;99.90;;;;;;10442924;28;20044;-80
2022/11/13 14:12:24;;;;;;;82.15;45.55;;;10.00;99.90;;;;;;10443144;28;19956;-80
2022/11/13 14:17:25;;;;;;;97.13;50.42;;;10.00;99.90;;;;;;10446008;28;20118;-81
2022/11/13 14:22:26;;;;;;;90.28;42.78;;;9.90;99.90;;;;;;10469743;28;20109;-80
2022/11/13 14:27:27;;;;;;;73.43;40.20;;;9.80;99.90;;;;;;10455540;28;20036;-81
2022/11/13 14:32:37;;;;;;;68.72;36.40;;;9.70;99.90;;;;;;10423304;28;20082;-82
2022/11/13 14:37:43;;;;;;;72.00;36.67;;;9.60;99.90;;;;;;10434047;28;20086;-80
2022/11/13 14:42:52;;;;;;;77.10;41.38;;;9.50;99.90;;;;;;10432819;28;20041;-79
2022/11/13 14:48:33;;;;;;;96.22;47.53;;;9.30;99.90;;;;;;10448364;28;20032;-80
2022/11/13 14:53:40;;;;;;;89.53;46.67;;;9.10;99.90;;;;;;10445593;28;20403;-80
2022/11/13 14:58:47;;;;;;;109.90;52.73;;;8.70;99.90;;;;;;10443804;28;20033;-80
2022/11/13 15:03:49;;;;;;;78.13;38.97;;;8.40;99.90;;;;;;10440424;28;20386;-81
2022/11/13 15:08:56;;;;;;;111.40;53.73;;;8.10;99.90;;;;;;10445416;28;20060;-80
2022/11/13 15:13:57;;;;;;;99.20;50.60;;;7.80;99.90;;;;;;10448486;28;20035;-80
2022/11/13 15:19:02;;;;;;;109.03;54.30;;;7.60;99.90;;;;;;10448304;28;20115;-79
2022/11/13 15:24:03;;;;;;;119.60;61.83;;;7.50;99.90;;;;;;10450726;28;20060;-79
2022/11/13 15:29:05;;;;;;;124.23;59.70;;;7.20;99.90;;;;;;10450037;28;20024;-80
2022/11/13 15:34:13;;;;;;;138.70;75.67;;;7.10;99.90;;;;;;10463485;28;20056;-80
2022/11/13 15:39:14;;;;;;;146.93;75.57;;;7.00;99.90;;;;;;10456607;28;20055;-80
2022/11/13 15:44:15;;;;;;;138.10;73.27;;;6.90;99.90;;;;;;10448258;28;20491;-80
2022/11/13 15:49:15;;;;;;;118.57;59.20;;;6.80;99.90;;;;;;10450791;28;20040;-80
2022/11/13 15:54:20;;;;;;;132.10;59.20;;;6.70;99.90;;;;;;10449281;28;20553;-80
2022/11/13 15:59:22;;;;;;;122.93;60.40;;;6.70;99.90;;;;;;10469309;28;20091;-79
2022/11/13 16:04:22;;;;;;;145.17;71.33;;;6.60;99.90;;;;;;10475872;28;20032;-80
2022/11/13 16:09:23;;;;;;;190.57;98.60;;;6.60;99.90;;;;;;10469999;28;20063;-80
2022/11/13 16:14:23;;;;;;;156.37;83.23;;;6.50;99.90;;;;;;10456651;28;20452;-80
2022/11/13 16:19:24;;;;;;;176.93;94.47;;;6.50;99.90;;;;;;10448402;28;20045;-80
2022/11/13 16:24:25;;;;;;;208.43;99.33;;;6.40;99.90;;;;;;10448303;28;20037;-80
2022/11/13 16:29:28;;;;;;;203.60;102.60;;;6.30;99.90;;;;;;10449891;28;20033;-80
2022/11/13 16:34:28;;;;;;;221.50;113.23;;;6.20;99.90;;;;;;10448033;28;20040;-79
2022/11/13 16:39:29;;;;;;;186.27;91.87;;;6.20;99.90;;;;;;10441759;28;20041;-81
2022/11/13 16:44:29;;;;;;;186.07;90.90;;;6.20;99.90;;;;;;10454180;28;20511;-81
2022/11/13 16:49:30;;;;;;;145.10;73.30;;;6.20;99.90;;;;;;10470584;28;20043;-80
2022/11/13 16:54:31;;;;;;;159.30;80.83;;;6.20;99.90;;;;;;10480847;28;20051;-80
2022/11/13 16:59:31;;;;;;;192.80;97.07;;;6.10;99.90;;;;;;10468491;28;20915;-79
2022/11/13 17:04:32;;;;;;;215.20;109.90;;;6.10;99.90;;;;;;10459752;28;20492;-80
2022/11/13 17:09:33;;;;;;;176.73;95.03;;;6.00;99.90;;;;;;10448917;28;20053;-80
2022/11/13 17:14:37;;;;;;;179.83;90.73;;;5.90;99.90;;;;;;10470852;28;20120;-80
2022/11/13 17:19:42;;;;;;;223.30;110.20;;;6.00;99.90;;;;;;10445153;28;20041;-80
2022/11/13 17:24:43;;;;;;;208.35;106.55;;;6.20;99.90;;;;;;10451967;28;20224;-79
2022/11/13 17:29:43;;;;;;;171.93;63.13;;;6.30;99.90;;;;;;10447016;28;20035;-79
2022/11/13 17:34:44;;;;;;;163.13;64.07;;;6.50;99.90;;;;;;10442966;28;20064;-79
2022/11/13 17:39:44;;;;;;;205.83;72.33;;;6.50;99.90;;;;;;10449850;28;20040;-79
2022/11/13 17:44:45;;;;;;;302.10;84.97;;;6.60;99.90;;;;;;10444790;28;20082;-80
2022/11/13 17:49:45;;;;;;;176.93;69.37;;;6.60;99.90;;;;;;10443523;28;20540;-80
2022/11/13 17:54:46;;;;;;;240.27;68.37;;;6.60;99.90;;;;;;10443149;28;20029;-79
2022/11/13 17:59:46;;;;;;;361.97;85.93;;;6.60;99.90;;;;;;10444339;28;20450;-79
2022/11/13 18:04:47;;;;;;;359.30;89.03;;;6.50;99.90;;;;;;10442075;28;20036;-80
2022/11/13 18:09:47;;;;;;;276.43;60.03;;;6.50;99.90;;;;;;10439106;28;20126;-80
2022/11/13 18:14:51;;;;;;;387.13;65.60;;;6.50;99.90;;;;;;10438589;28;20457;-81
2022/11/13 18:19:52;;;;;;;342.13;66.87;;;6.50;99.90;;;;;;10438330;28;20588;-82
2022/11/13 18:24:53;;;;;;;444.17;114.00;;;6.40;99.90;;;;;;10440457;28;20579;-79
2022/11/13 18:29:54;;;;;;;276.20;75.57;;;6.50;99.90;;;;;;10457343;28;20024;-81
2022/11/13 18:34:54;;;;;;;271.17;75.63;;;6.50;99.90;;;;;;10459717;28;20028;-79
2022/11/13 18:39:57;;;;;;;193.40;55.30;;;6.50;99.90;;;;;;10465146;28;20095;-80
2022/11/13 18:44:57;;;;;;;244.07;54.57;;;6.50;99.90;;;;;;10483123;28;20037;-81
2022/11/13 18:49:58;;;;;;;266.87;81.30;;;6.50;99.90;;;;;;10456440;28;20039;-80
2022/11/13 18:54:59;;;;;;;279.10;90.90;;;6.50;99.90;;;;;;10458803;28;20049;-80
2022/11/13 18:59:59;;;;;;;353.57;92.33;;;6.40;99.90;;;;;;10470632;28;20040;-81
2022/11/13 19:05:00;;;;;;;362.13;82.97;;;6.50;99.90;;;;;;10474172;28;20036;-81
2022/11/13 19:10:01;;;;;;;205.00;62.57;;;6.50;99.90;;;;;;10461384;28;20048;-81
2022/11/13 19:15:02;;;;;;;205.47;48.27;;;6.50;99.90;;;;;;10459072;28;20578;-81
2022/11/13 19:20:03;;;;;;;272.07;76.50;;;6.50;99.90;;;;;;10462066;28;20040;-80
2022/11/13 19:25:04;;;;;;;165.80;48.03;;;6.50;99.90;;;;;;10480368;28;20416;-80
2022/11/13 19:30:05;;;;;;;171.23;43.03;;;6.50;99.90;;;;;;10473806;28;20028;-82
2022/11/13 19:35:06;;;;;;;261.37;61.37;;;6.50;99.90;;;;;;10443912;28;20497;-82
2022/11/13 19:40:07;;;;;;;327.90;55.47;;;6.40;99.90;;;;;;10466202;28;20048;-80
2022/11/13 19:45:08;;;;;;;255.73;54.10;;;6.40;99.90;;;;;;10454508;28;20174;-80
2022/11/13 19:50:09;;;;;;;237.33;54.80;;;6.40;99.90;;;;;;10480129;28;20081;-81
2022/11/13 19:55:09;;;;;;;230.80;58.63;;;6.40;99.90;;;;;;10479038;28;20040;-81
2022/11/13 20:00:11;;;;;;;249.53;59.87;;;6.40;99.90;;;;;;10466555;28;20173;-81
2022/11/13 20:05:12;;;;;;;193.43;50.77;;;6.50;99.90;;;;;;10461273;28;20099;-81
2022/11/13 20:10:12;;;;;;;231.53;61.67;;;6.40;99.90;;;;;;10469550;28;20178;-80
2022/11/13 20:15:13;;;;;;;291.00;56.77;;;6.40;99.90;;;;;;10477572;28;20103;-80
2022/11/13 20:20:14;;;;;;;306.20;67.83;;;6.40;99.90;;;;;;10461636;28;20033;-81
2022/11/13 20:25:15;;;;;;;334.77;61.83;;;6.40;99.90;;;;;;10467181;28;20103;-80
2022/11/13 20:30:15;;;;;;;198.67;48.93;;;6.30;99.90;;;;;;10471023;28;20670;-81
2022/11/13 20:35:16;;;;;;;256.33;67.30;;;6.30;99.90;;;;;;10441723;28;20035;-80
2022/11/13 20:40:17;;;;;;;182.00;51.03;;;6.30;99.90;;;;;;10471822;28;20045;-80
2022/11/13 20:45:17;;;;;;;375.60;58.00;;;6.30;99.90;;;;;;10479096;28;20036;-80
2022/11/13 20:50:18;;;;;;;330.27;57.53;;;6.30;99.90;;;;;;10463282;28;20116;-81
2022/11/13 20:55:18;;;;;;;174.90;45.10;;;6.20;99.90;;;;;;10458222;28;20105;-79
2022/11/13 21:00:19;;;;;;;425.10;72.20;;;6.20;99.90;;;;;;10471619;28;20122;-81
2022/11/13 21:05:19;;;;;;;195.50;44.93;;;6.20;99.90;;;;;;10473247;28;20024;-80
2022/11/13 21:10:20;;;;;;;185.27;46.57;;;6.20;99.90;;;;;;10459073;28;20053;-79
2022/11/13 21:15:21;;;;;;;281.47;64.63;;;6.20;99.90;;;;;;10482038;28;20029;-80
2022/11/13 21:20:21;;;;;;;311.70;51.77;;;6.20;99.90;;;;;;10440730;28;20037;-79
2022/11/13 21:25:22;;;;;;;384.57;63.73;;;6.10;99.90;;;;;;10474559;28;20078;-80
2022/11/13 21:30:22;;;;;;;323.67;56.80;;;6.00;99.90;;;;;;10469927;28;20564;-80
2022/11/13 21:35:23;;;;;;;256.13;51.30;;;6.00;99.90;;;;;;10462703;28;20786;-79
2022/11/13 21:40:23;;;;;;;331.67;71.63;;;6.00;99.90;;;;;;10478286;28;20036;-80
2022/11/13 21:45:24;;;;;;;192.23;58.00;;;6.00;99.90;;;;;;10471132;28;20035;-80
2022/11/13 21:50:25;;;;;;;250.83;57.50;;;6.00;99.90;;;;;;10464990;28;20029;-81
2022/11/13 21:55:25;;;;;;;172.37;53.80;;;6.00;99.90;;;;;;10469440;28;20436;-81
2022/11/13 22:00:26;;;;;;;212.20;55.13;;;5.90;99.90;;;;;;10467779;28;20049;-82
2022/11/13 22:05:26;;;;;;;227.00;50.87;;;5.90;99.90;;;;;;10456673;28;20029;-81
2022/11/13 22:10:27;;;;;;;279.13;65.73;;;5.90;99.90;;;;;;10473566;28;20044;-82
2022/11/13 22:15:27;;;;;;;311.93;55.53;;;5.80;99.90;;;;;;10445291;28;20029;-80
2022/11/13 22:20:28;;;;;;;258.13;56.97;;;5.80;99.90;;;;;;10470026;28;20040;-81
2022/11/13 22:25:28;;;;;;;220.10;50.67;;;5.80;99.90;;;;;;10464111;28;20110;-80
2022/11/13 22:30:29;;;;;;;322.83;64.20;;;5.70;99.90;;;;;;10475465;28;20041;-80
2022/11/13 22:35:29;;;;;;;221.43;46.43;;;5.70;99.90;;;;;;10454315;28;20484;-81
2022/11/13 22:40:31;;;;;;;254.13;45.63;;;5.60;99.90;;;;;;10454354;28;20044;-82
2022/11/13 22:45:32;;;;;;;157.70;40.43;;;5.60;99.90;;;;;;10464860;28;20036;-81
2022/11/13 22:50:35;;;;;;;185.43;42.43;;;5.60;99.90;;;;;;10463155;28;20461;-81
2022/11/13 22:55:35;;;;;;;148.93;33.90;;;5.50;99.90;;;;;;10470811;28;20035;-80
2022/11/13 23:00:36;;;;;;;212.77;45.83;;;5.50;99.90;;;;;;10469017;28;20037;-80
2022/11/13 23:05:36;;;;;;;235.90;44.60;;;5.50;99.90;;;;;;10474286;28;20057;-82
2022/11/13 23:10:37;;;;;;;183.70;37.20;;;5.50;99.90;;;;;;10459301;28;20132;-80
2022/11/13 23:15:37;;;;;;;174.13;40.93;;;5.50;99.90;;;;;;10465080;28;20060;-81
2022/11/13 23:20:39;;;;;;;241.87;47.70;;;5.50;99.90;;;;;;10473322;28;20771;-81
2022/11/13 23:25:40;;;;;;;229.10;47.60;;;5.50;99.90;;;;;;10453723;28;20071;-84
2022/11/13 23:30:41;;;;;;;214.47;45.07;;;5.50;99.90;;;;;;10472215;28;20033;-81
2022/11/13 23:35:42;;;;;;;140.73;39.73;;;5.60;99.90;;;;;;10459864;28;20033;-81
2022/11/13 23:40:42;;;;;;;211.87;40.27;;;5.70;99.90;;;;;;10481094;28;20123;-80
2022/11/13 23:45:43;;;;;;;229.07;43.23;;;5.70;99.90;;;;;;10486701;28;20032;-80
2022/11/13 23:50:44;;;;;;;192.43;45.50;;;5.80;99.90;;;;;;10479697;28;20032;-80
2022/11/13 23:55:44;;;;;;;165.80;35.83;;;5.80;99.90;;;;;;10473913;28;20033;-80
